CheckWX is a tool to help pilots better visualize weather data.  It is not intended as a substitute for an official pre-flight weather briefing.

15:31:45 UTC

KSUN TAF
Friedman Memorial Airport
Hailey, Idaho, USA
KSUN 241505Z 2415/2518 VRB05KT 1SM -SHSN BR FEW004 SCT008 OVC013 FM242200 21008KT P6SM VCSH SCT015 BKN035 FM250200 31008KT P6SM SCT040

Mar-24@
15:00 UTC

Mar-24 @ 15:00 UTC

Mar-24@
22:00 UTC

Mar-24 @ 22:00 UTC

KSUN 241505Z 2415/2518 VRB05KT 1SM -SHSN BR FEW004 SCT008 OVC013
Wind
  • Variable at 5 KTS
Conditions
Light Snow, Mist
Cloud Levels
  • Few at 400' AGL
  • Scattered at 800' AGL
  • Overcast at 1,300' AGL

Mar-24@
22:00 UTC

Mar-24 @ 22:00 UTC

Mar-25@
02:00 UTC

Mar-25 @ 02:00 UTC

FM242200 21008KT P6SM VCSH SCT015 BKN035

From

From Standard forecast or significant change

Wind
  • 210° at 8 KTS
Cloud Levels
  • Scattered at 1,500' AGL
  • Broken at 3,500' AGL

Mar-25@
02:00 UTC

Mar-25 @ 02:00 UTC

Mar-25@
18:00 UTC

Mar-25 @ 18:00 UTC

FM250200 31008KT P6SM SCT040

From

From Standard forecast or significant change

Wind
  • 310° at 8 KTS
Cloud Levels
  • Scattered at 4,000' AGL